Terminal Aerodrome Forecast
Issued by NWS Albany, NY

Home | Current Version | Previous Version | Text Only | Print | Product List | Glossary On
Versions: 1 2 3 4 5 6 7 8 9 10 11 12 13 14 15 16
000
FTUS41 KALY 041720
TAFGFL
TAF
KGFL 041720Z 0418/0518 36006KT P6SM OVC035
     FM042300 00000KT P6SM SCT035 SCT250
     FM050500 00000KT P6SM BKN200
     FM050700 VRB03KT P6SM VCSH OVC050
     FM050900 VRB03KT 2SM -SN BR OVC015
     FM051600 19005KT 5SM -SN BR OVC025=

USA.gov is the U.S. government's official web portal to all federal, state and local government web resources and services.